sensor_id;sensor_type;location;lat;lon;timestamp;P1;durP1;ratioP1;P2;durP2;ratioP2
64795;SDS011;51229;51.980;6.722;2022-12-08T00:00:00;16.35;;;9.95;;
64795;SDS011;51229;51.980;6.722;2022-12-08T00:02:25;17.10;;;9.93;;
64795;SDS011;51229;51.980;6.722;2022-12-08T00:04:51;14.10;;;9.18;;
64795;SDS011;51229;51.980;6.722;2022-12-08T00:07:37;18.15;;;9.50;;
64795;SDS011;51229;51.980;6.722;2022-12-08T00:10:21;16.10;;;9.85;;
64795;SDS011;51229;51.980;6.722;2022-12-08T00:12:47;16.58;;;9.98;;
64795;SDS011;51229;51.980;6.722;2022-12-08T00:15:12;15.85;;;9.48;;
64795;SDS011;51229;51.980;6.722;2022-12-08T00:17:38;17.55;;;10.85;;
64795;SDS011;51229;51.980;6.722;2022-12-08T00:20:03;16.55;;;10.02;;
64795;SDS011;51229;51.980;6.722;2022-12-08T00:22:30;15.85;;;9.93;;
64795;SDS011;51229;51.980;6.722;2022-12-08T00:24:56;15.57;;;9.98;;
64795;SDS011;51229;51.980;6.722;2022-12-08T00:27:22;14.73;;;9.73;;
64795;SDS011;51229;51.980;6.722;2022-12-08T00:29:48;16.83;;;10.20;;
64795;SDS011;51229;51.980;6.722;2022-12-08T00:32:13;14.45;;;8.32;;
64795;SDS011;51229;51.980;6.722;2022-12-08T00:34:39;15.40;;;9.45;;
64795;SDS011;51229;51.980;6.722;2022-12-08T00:37:04;16.75;;;9.75;;
64795;SDS011;51229;51.980;6.722;2022-12-08T00:39:30;14.77;;;9.50;;
64795;SDS011;51229;51.980;6.722;2022-12-08T00:41:56;17.30;;;10.68;;
64795;SDS011;51229;51.980;6.722;2022-12-08T00:44:37;17.17;;;10.43;;
64795;SDS011;51229;51.980;6.722;2022-12-08T00:47:07;15.40;;;10.25;;
64795;SDS011;51229;51.980;6.722;2022-12-08T00:49:32;17.00;;;9.88;;
64795;SDS011;51229;51.980;6.722;2022-12-08T00:51:58;17.92;;;9.90;;
64795;SDS011;51229;51.980;6.722;2022-12-08T00:54:24;17.42;;;10.15;;
64795;SDS011;51229;51.980;6.722;2022-12-08T00:56:50;16.73;;;11.00;;
64795;SDS011;51229;51.980;6.722;2022-12-08T00:59:16;16.58;;;10.48;;
64795;SDS011;51229;51.980;6.722;2022-12-08T01:01:43;16.55;;;10.48;;
64795;SDS011;51229;51.980;6.722;2022-12-08T01:04:11;16.15;;;10.15;;
64795;SDS011;51229;51.980;6.722;2022-12-08T01:06:39;16.70;;;10.15;;
64795;SDS011;51229;51.980;6.722;2022-12-08T01:09:06;16.73;;;11.18;;
64795;SDS011;51229;51.980;6.722;2022-12-08T01:11:33;17.73;;;11.23;;
64795;SDS011;51229;51.980;6.722;2022-12-08T01:14:00;17.05;;;11.63;;
64795;SDS011;51229;51.980;6.722;2022-12-08T01:16:27;17.52;;;11.90;;
64795;SDS011;51229;51.980;6.722;2022-12-08T01:18:55;16.67;;;11.07;;
64795;SDS011;51229;51.980;6.722;2022-12-08T01:21:21;18.77;;;11.50;;
64795;SDS011;51229;51.980;6.722;2022-12-08T01:23:47;18.92;;;10.85;;
64795;SDS011;51229;51.980;6.722;2022-12-08T01:26:14;15.10;;;10.43;;
64795;SDS011;51229;51.980;6.722;2022-12-08T01:28:41;16.50;;;11.25;;
64795;SDS011;51229;51.980;6.722;2022-12-08T01:31:14;18.33;;;11.60;;
64795;SDS011;51229;51.980;6.722;2022-12-08T01:33:42;15.95;;;10.20;;
64795;SDS011;51229;51.980;6.722;2022-12-08T01:36:08;18.80;;;11.05;;
64795;SDS011;51229;51.980;6.722;2022-12-08T01:38:47;18.02;;;10.25;;
64795;SDS011;51229;51.980;6.722;2022-12-08T01:41:18;15.88;;;10.18;;
64795;SDS011;51229;51.980;6.722;2022-12-08T01:44:48;17.20;;;10.05;;
64795;SDS011;51229;51.980;6.722;2022-12-08T01:46:37;15.07;;;10.73;;
64795;SDS011;51229;51.980;6.722;2022-12-08T01:49:09;18.25;;;10.98;;
64795;SDS011;51229;51.980;6.722;2022-12-08T01:54:16;15.77;;;8.98;;
64795;SDS011;51229;51.980;6.722;2022-12-08T01:56:51;14.68;;;7.93;;
64795;SDS011;51229;51.980;6.722;2022-12-08T01:59:26;12.32;;;7.45;;
64795;SDS011;51229;51.980;6.722;2022-12-08T02:01:54;15.80;;;9.63;;
64795;SDS011;51229;51.980;6.722;2022-12-08T02:04:21;18.70;;;10.05;;
64795;SDS011;51229;51.980;6.722;2022-12-08T02:06:47;15.23;;;8.88;;
64795;SDS011;51229;51.980;6.722;2022-12-08T02:09:13;14.60;;;9.88;;
64795;SDS011;51229;51.980;6.722;2022-12-08T02:11:39;14.65;;;8.98;;
64795;SDS011;51229;51.980;6.722;2022-12-08T02:14:06;15.95;;;9.15;;
64795;SDS011;51229;51.980;6.722;2022-12-08T02:22:21;11.80;;;8.02;;
64795;SDS011;51229;51.980;6.722;2022-12-08T02:38:45;12.80;;;8.05;;
64795;SDS011;51229;51.980;6.722;2022-12-08T02:44:42;13.65;;;8.35;;
64795;SDS011;51229;51.980;6.722;2022-12-08T02:47:22;15.18;;;9.20;;
64795;SDS011;51229;51.980;6.722;2022-12-08T02:49:56;15.70;;;9.90;;
64795;SDS011;51229;51.980;6.722;2022-12-08T02:55:05;14.05;;;8.38;;
64795;SDS011;51229;51.980;6.722;2022-12-08T02:57:41;17.33;;;9.55;;
64795;SDS011;51229;51.980;6.722;2022-12-08T03:06:41;11.77;;;7.00;;
64795;SDS011;51229;51.980;6.722;2022-12-08T03:15:08;13.85;;;8.27;;
64795;SDS011;51229;51.980;6.722;2022-12-08T03:17:40;15.85;;;9.90;;
64795;SDS011;51229;51.980;6.722;2022-12-08T03:20:15;18.77;;;10.15;;
64795;SDS011;51229;51.980;6.722;2022-12-08T03:22:46;19.63;;;10.65;;
64795;SDS011;51229;51.980;6.722;2022-12-08T03:25:20;16.02;;;9.57;;
64795;SDS011;51229;51.980;6.722;2022-12-08T03:27:51;19.42;;;11.38;;
64795;SDS011;51229;51.980;6.722;2022-12-08T03:30:18;20.88;;;12.07;;
64795;SDS011;51229;51.980;6.722;2022-12-08T03:35:15;18.02;;;11.00;;
64795;SDS011;51229;51.980;6.722;2022-12-08T03:37:46;19.75;;;11.73;;
64795;SDS011;51229;51.980;6.722;2022-12-08T03:40:13;21.73;;;12.23;;
64795;SDS011;51229;51.980;6.722;2022-12-08T03:42:40;24.95;;;12.85;;
64795;SDS011;51229;51.980;6.722;2022-12-08T03:45:06;21.00;;;12.95;;
64795;SDS011;51229;51.980;6.722;2022-12-08T03:47:32;16.77;;;10.48;;
64795;SDS011;51229;51.980;6.722;2022-12-08T03:49:58;22.00;;;13.00;;
64795;SDS011;51229;51.980;6.722;2022-12-08T03:52:23;11.60;;;6.75;;
64795;SDS011;51229;51.980;6.722;2022-12-08T03:54:49;20.60;;;11.90;;
64795;SDS011;51229;51.980;6.722;2022-12-08T03:57:14;20.40;;;11.00;;
64795;SDS011;51229;51.980;6.722;2022-12-08T03:59:40;20.48;;;11.32;;
64795;SDS011;51229;51.980;6.722;2022-12-08T04:02:06;21.58;;;12.02;;
64795;SDS011;51229;51.980;6.722;2022-12-08T04:04:31;20.27;;;11.25;;
64795;SDS011;51229;51.980;6.722;2022-12-08T04:06:57;21.73;;;12.05;;
64795;SDS011;51229;51.980;6.722;2022-12-08T04:09:23;19.77;;;12.50;;
64795;SDS011;51229;51.980;6.722;2022-12-08T04:11:48;19.85;;;11.70;;
64795;SDS011;51229;51.980;6.722;2022-12-08T04:14:14;19.30;;;10.70;;
64795;SDS011;51229;51.980;6.722;2022-12-08T04:16:40;18.63;;;11.00;;
64795;SDS011;51229;51.980;6.722;2022-12-08T04:19:06;24.02;;;12.70;;
64795;SDS011;51229;51.980;6.722;2022-12-08T04:21:31;21.50;;;11.98;;
64795;SDS011;51229;51.980;6.722;2022-12-08T04:23:57;18.83;;;11.40;;
64795;SDS011;51229;51.980;6.722;2022-12-08T04:26:23;16.40;;;10.13;;
64795;SDS011;51229;51.980;6.722;2022-12-08T04:28:48;18.83;;;11.40;;
64795;SDS011;51229;51.980;6.722;2022-12-08T04:31:14;19.23;;;11.05;;
64795;SDS011;51229;51.980;6.722;2022-12-08T04:33:40;18.80;;;11.15;;
64795;SDS011;51229;51.980;6.722;2022-12-08T04:36:06;18.15;;;10.88;;
64795;SDS011;51229;51.980;6.722;2022-12-08T04:38:32;17.30;;;10.43;;
64795;SDS011;51229;51.980;6.722;2022-12-08T04:40:58;18.33;;;10.40;;
64795;SDS011;51229;51.980;6.722;2022-12-08T04:43:24;17.30;;;10.43;;
64795;SDS011;51229;51.980;6.722;2022-12-08T04:45:50;16.05;;;8.90;;
64795;SDS011;51229;51.980;6.722;2022-12-08T04:48:16;14.30;;;9.20;;
64795;SDS011;51229;51.980;6.722;2022-12-08T04:50:42;15.75;;;9.25;;
64795;SDS011;51229;51.980;6.722;2022-12-08T04:53:09;15.82;;;9.20;;
64795;SDS011;51229;51.980;6.722;2022-12-08T04:55:42;16.88;;;9.70;;
64795;SDS011;51229;51.980;6.722;2022-12-08T04:58:12;15.18;;;9.18;;
64795;SDS011;51229;51.980;6.722;2022-12-08T05:00:39;15.23;;;8.63;;
64795;SDS011;51229;51.980;6.722;2022-12-08T05:03:05;14.95;;;8.55;;
64795;SDS011;51229;51.980;6.722;2022-12-08T05:05:31;14.85;;;9.32;;
64795;SDS011;51229;51.980;6.722;2022-12-08T05:07:56;15.63;;;9.63;;
64795;SDS011;51229;51.980;6.722;2022-12-08T05:10:22;16.95;;;9.40;;
64795;SDS011;51229;51.980;6.722;2022-12-08T05:12:49;15.68;;;9.55;;
64795;SDS011;51229;51.980;6.722;2022-12-08T05:15:14;16.35;;;9.45;;
64795;SDS011;51229;51.980;6.722;2022-12-08T05:17:40;13.65;;;8.23;;
64795;SDS011;51229;51.980;6.722;2022-12-08T05:20:06;16.20;;;9.25;;
64795;SDS011;51229;51.980;6.722;2022-12-08T05:22:32;13.70;;;7.10;;
64795;SDS011;51229;51.980;6.722;2022-12-08T05:24:58;18.33;;;10.38;;
64795;SDS011;51229;51.980;6.722;2022-12-08T05:27:27;18.58;;;8.93;;
64795;SDS011;51229;51.980;6.722;2022-12-08T05:29:53;13.30;;;8.13;;
64795;SDS011;51229;51.980;6.722;2022-12-08T05:32:19;14.85;;;8.75;;
64795;SDS011;51229;51.980;6.722;2022-12-08T05:34:44;14.18;;;8.80;;
64795;SDS011;51229;51.980;6.722;2022-12-08T05:37:13;14.30;;;7.65;;
64795;SDS011;51229;51.980;6.722;2022-12-08T05:39:39;13.35;;;7.53;;
64795;SDS011;51229;51.980;6.722;2022-12-08T05:42:14;14.57;;;8.10;;
64795;SDS011;51229;51.980;6.722;2022-12-08T05:44:50;14.15;;;8.73;;
64795;SDS011;51229;51.980;6.722;2022-12-08T05:47:16;15.02;;;8.80;;
64795;SDS011;51229;51.980;6.722;2022-12-08T05:49:42;13.07;;;8.20;;
64795;SDS011;51229;51.980;6.722;2022-12-08T05:52:07;14.75;;;8.50;;
64795;SDS011;51229;51.980;6.722;2022-12-08T05:54:33;14.48;;;8.02;;
64795;SDS011;51229;51.980;6.722;2022-12-08T05:56:59;12.55;;;7.65;;
64795;SDS011;51229;51.980;6.722;2022-12-08T05:59:24;12.95;;;6.75;;
64795;SDS011;51229;51.980;6.722;2022-12-08T06:01:50;12.00;;;6.72;;
64795;SDS011;51229;51.980;6.722;2022-12-08T06:04:16;11.85;;;7.05;;
64795;SDS011;51229;51.980;6.722;2022-12-08T06:06:41;11.05;;;6.28;;
64795;SDS011;51229;51.980;6.722;2022-12-08T06:09:07;10.95;;;6.10;;
64795;SDS011;51229;51.980;6.722;2022-12-08T06:11:33;9.55;;;6.18;;
64795;SDS011;51229;51.980;6.722;2022-12-08T06:13:59;9.77;;;6.35;;
64795;SDS011;51229;51.980;6.722;2022-12-08T06:16:26;8.20;;;4.70;;
64795;SDS011;51229;51.980;6.722;2022-12-08T06:18:52;8.43;;;4.90;;
64795;SDS011;51229;51.980;6.722;2022-12-08T06:21:18;8.65;;;4.63;;
64795;SDS011;51229;51.980;6.722;2022-12-08T06:23:46;7.60;;;4.88;;
64795;SDS011;51229;51.980;6.722;2022-12-08T06:26:13;7.65;;;4.25;;
64795;SDS011;51229;51.980;6.722;2022-12-08T06:28:40;8.05;;;4.28;;
64795;SDS011;51229;51.980;6.722;2022-12-08T06:31:13;7.03;;;4.10;;
64795;SDS011;51229;51.980;6.722;2022-12-08T06:33:42;6.75;;;4.07;;
64795;SDS011;51229;51.980;6.722;2022-12-08T06:36:08;7.55;;;4.28;;
64795;SDS011;51229;51.980;6.722;2022-12-08T06:38:35;8.32;;;4.63;;
64795;SDS011;51229;51.980;6.722;2022-12-08T06:41:01;6.50;;;4.32;;
64795;SDS011;51229;51.980;6.722;2022-12-08T06:43:27;7.47;;;4.20;;
64795;SDS011;51229;51.980;6.722;2022-12-08T06:45:52;9.15;;;5.00;;
64795;SDS011;51229;51.980;6.722;2022-12-08T06:48:18;7.68;;;4.50;;
64795;SDS011;51229;51.980;6.722;2022-12-08T06:50:44;7.28;;;4.28;;
64795;SDS011;51229;51.980;6.722;2022-12-08T06:53:10;8.30;;;4.97;;
64795;SDS011;51229;51.980;6.722;2022-12-08T06:55:41;8.88;;;5.10;;
64795;SDS011;51229;51.980;6.722;2022-12-08T06:58:11;7.57;;;4.53;;
64795;SDS011;51229;51.980;6.722;2022-12-08T07:00:39;8.15;;;4.95;;
64795;SDS011;51229;51.980;6.722;2022-12-08T07:03:06;12.68;;;6.68;;
64795;SDS011;51229;51.980;6.722;2022-12-08T07:05:33;8.50;;;5.03;;
64795;SDS011;51229;51.980;6.722;2022-12-08T07:07:59;8.98;;;4.95;;
64795;SDS011;51229;51.980;6.722;2022-12-08T07:10:25;8.00;;;4.93;;
64795;SDS011;51229;51.980;6.722;2022-12-08T07:12:51;9.20;;;5.05;;
64795;SDS011;51229;51.980;6.722;2022-12-08T07:15:17;7.95;;;4.85;;
64795;SDS011;51229;51.980;6.722;2022-12-08T07:17:44;7.60;;;4.88;;
64795;SDS011;51229;51.980;6.722;2022-12-08T07:20:11;8.88;;;5.18;;
64795;SDS011;51229;51.980;6.722;2022-12-08T07:22:36;10.20;;;5.13;;
64795;SDS011;51229;51.980;6.722;2022-12-08T07:25:02;9.60;;;4.63;;
64795;SDS011;51229;51.980;6.722;2022-12-08T07:27:28;9.05;;;5.13;;
64795;SDS011;51229;51.980;6.722;2022-12-08T07:29:53;10.38;;;4.90;;
64795;SDS011;51229;51.980;6.722;2022-12-08T07:32:19;8.13;;;4.82;;
64795;SDS011;51229;51.980;6.722;2022-12-08T07:34:45;7.25;;;3.67;;
64795;SDS011;51229;51.980;6.722;2022-12-08T07:37:10;8.15;;;4.97;;
64795;SDS011;51229;51.980;6.722;2022-12-08T07:39:36;9.23;;;4.78;;
64795;SDS011;51229;51.980;6.722;2022-12-08T07:42:01;7.65;;;4.45;;
64795;SDS011;51229;51.980;6.722;2022-12-08T07:44:27;9.63;;;4.57;;
64795;SDS011;51229;51.980;6.722;2022-12-08T07:46:53;7.15;;;4.70;;
64795;SDS011;51229;51.980;6.722;2022-12-08T07:49:18;10.02;;;5.00;;
64795;SDS011;51229;51.980;6.722;2022-12-08T07:51:44;9.18;;;4.85;;
64795;SDS011;51229;51.980;6.722;2022-12-08T07:54:10;7.78;;;4.20;;
64795;SDS011;51229;51.980;6.722;2022-12-08T07:56:36;8.25;;;4.10;;
64795;SDS011;51229;51.980;6.722;2022-12-08T07:59:02;6.78;;;4.30;;
64795;SDS011;51229;51.980;6.722;2022-12-08T08:01:30;8.18;;;4.38;;
64795;SDS011;51229;51.980;6.722;2022-12-08T08:03:57;8.40;;;3.83;;
64795;SDS011;51229;51.980;6.722;2022-12-08T08:06:31;6.78;;;3.92;;
64795;SDS011;51229;51.980;6.722;2022-12-08T08:08:58;8.23;;;4.47;;
64795;SDS011;51229;51.980;6.722;2022-12-08T08:11:24;5.97;;;3.30;;
64795;SDS011;51229;51.980;6.722;2022-12-08T08:13:50;6.53;;;3.80;;
64795;SDS011;51229;51.980;6.722;2022-12-08T08:16:16;6.82;;;3.70;;
64795;SDS011;51229;51.980;6.722;2022-12-08T08:18:44;7.25;;;4.03;;
64795;SDS011;51229;51.980;6.722;2022-12-08T08:21:12;6.82;;;3.70;;
64795;SDS011;51229;51.980;6.722;2022-12-08T08:23:37;6.93;;;3.55;;
64795;SDS011;51229;51.980;6.722;2022-12-08T08:26:03;7.10;;;3.78;;
64795;SDS011;51229;51.980;6.722;2022-12-08T08:28:29;6.95;;;3.78;;
64795;SDS011;51229;51.980;6.722;2022-12-08T08:30:56;7.40;;;3.90;;
64795;SDS011;51229;51.980;6.722;2022-12-08T08:33:22;6.20;;;3.47;;
64795;SDS011;51229;51.980;6.722;2022-12-08T08:35:48;6.65;;;3.30;;
64795;SDS011;51229;51.980;6.722;2022-12-08T08:38:13;6.78;;;3.22;;
64795;SDS011;51229;51.980;6.722;2022-12-08T08:40:39;6.15;;;3.30;;
64795;SDS011;51229;51.980;6.722;2022-12-08T08:43:05;5.68;;;2.90;;
64795;SDS011;51229;51.980;6.722;2022-12-08T08:45:31;5.85;;;3.15;;
64795;SDS011;51229;51.980;6.722;2022-12-08T08:47:57;6.35;;;2.95;;
64795;SDS011;51229;51.980;6.722;2022-12-08T08:50:23;5.55;;;2.80;;
64795;SDS011;51229;51.980;6.722;2022-12-08T08:52:49;5.78;;;2.78;;
64795;SDS011;51229;51.980;6.722;2022-12-08T08:55:15;5.93;;;3.20;;
64795;SDS011;51229;51.980;6.722;2022-12-08T08:57:40;5.03;;;2.72;;
64795;SDS011;51229;51.980;6.722;2022-12-08T09:00:06;6.35;;;3.20;;
64795;SDS011;51229;51.980;6.722;2022-12-08T09:02:34;5.95;;;2.90;;
64795;SDS011;51229;51.980;6.722;2022-12-08T09:05:01;6.20;;;3.08;;
64795;SDS011;51229;51.980;6.722;2022-12-08T09:07:27;7.18;;;3.13;;
64795;SDS011;51229;51.980;6.722;2022-12-08T09:09:52;5.85;;;3.28;;
64795;SDS011;51229;51.980;6.722;2022-12-08T09:12:18;5.85;;;3.25;;
64795;SDS011;51229;51.980;6.722;2022-12-08T09:14:43;7.10;;;3.70;;
64795;SDS011;51229;51.980;6.722;2022-12-08T09:17:10;7.88;;;3.65;;
64795;SDS011;51229;51.980;6.722;2022-12-08T09:19:35;6.75;;;3.67;;
64795;SDS011;51229;51.980;6.722;2022-12-08T09:22:01;7.28;;;3.80;;
64795;SDS011;51229;51.980;6.722;2022-12-08T09:24:27;6.65;;;3.47;;
64795;SDS011;51229;51.980;6.722;2022-12-08T09:26:53;6.60;;;3.28;;
64795;SDS011;51229;51.980;6.722;2022-12-08T09:29:18;7.82;;;3.90;;
64795;SDS011;51229;51.980;6.722;2022-12-08T09:31:44;7.10;;;3.88;;
64795;SDS011;51229;51.980;6.722;2022-12-08T09:34:10;7.88;;;4.25;;
64795;SDS011;51229;51.980;6.722;2022-12-08T09:36:36;7.35;;;3.80;;
64795;SDS011;51229;51.980;6.722;2022-12-08T09:39:03;7.00;;;3.88;;
64795;SDS011;51229;51.980;6.722;2022-12-08T09:41:33;6.55;;;3.92;;
64795;SDS011;51229;51.980;6.722;2022-12-08T09:47:13;8.45;;;4.25;;
64795;SDS011;51229;51.980;6.722;2022-12-08T09:52:30;8.05;;;4.10;;
64795;SDS011;51229;51.980;6.722;2022-12-08T09:55:02;7.38;;;3.72;;
64795;SDS011;51229;51.980;6.722;2022-12-08T09:57:35;6.70;;;4.03;;
64795;SDS011;51229;51.980;6.722;2022-12-08T10:00:03;8.52;;;4.43;;
64795;SDS011;51229;51.980;6.722;2022-12-08T10:02:30;8.15;;;4.43;;
64795;SDS011;51229;51.980;6.722;2022-12-08T10:04:56;8.32;;;4.75;;
64795;SDS011;51229;51.980;6.722;2022-12-08T10:07:29;7.70;;;4.32;;
64795;SDS011;51229;51.980;6.722;2022-12-08T10:12:45;7.18;;;4.00;;
64795;SDS011;51229;51.980;6.722;2022-12-08T10:15:25;8.10;;;4.15;;
64795;SDS011;51229;51.980;6.722;2022-12-08T10:17:54;7.75;;;4.32;;
64795;SDS011;51229;51.980;6.722;2022-12-08T10:20:23;7.90;;;4.10;;
64795;SDS011;51229;51.980;6.722;2022-12-08T10:25:55;8.70;;;4.10;;
64795;SDS011;51229;51.980;6.722;2022-12-08T10:28:27;8.48;;;4.07;;
64795;SDS011;51229;51.980;6.722;2022-12-08T10:30:53;6.88;;;3.80;;
64795;SDS011;51229;51.980;6.722;2022-12-08T10:33:19;6.05;;;3.17;;
64795;SDS011;51229;51.980;6.722;2022-12-08T10:35:51;5.97;;;3.50;;
64795;SDS011;51229;51.980;6.722;2022-12-08T10:38:23;6.80;;;3.65;;
64795;SDS011;51229;51.980;6.722;2022-12-08T10:40:56;7.15;;;3.60;;
64795;SDS011;51229;51.980;6.722;2022-12-08T10:43:28;5.95;;;3.30;;
64795;SDS011;51229;51.980;6.722;2022-12-08T10:45:55;6.65;;;3.42;;
64795;SDS011;51229;51.980;6.722;2022-12-08T10:48:56;7.38;;;3.20;;
64795;SDS011;51229;51.980;6.722;2022-12-08T10:51:36;6.32;;;3.75;;
64795;SDS011;51229;51.980;6.722;2022-12-08T10:54:03;8.02;;;3.60;;
64795;SDS011;51229;51.980;6.722;2022-12-08T10:56:32;7.53;;;4.05;;
64795;SDS011;51229;51.980;6.722;2022-12-08T10:59:12;7.25;;;3.33;;
64795;SDS011;51229;51.980;6.722;2022-12-08T11:01:44;6.97;;;3.50;;
64795;SDS011;51229;51.980;6.722;2022-12-08T11:04:22;5.43;;;2.85;;
64795;SDS011;51229;51.980;6.722;2022-12-08T11:06:58;7.15;;;3.58;;
64795;SDS011;51229;51.980;6.722;2022-12-08T11:09:45;8.00;;;3.38;;
64795;SDS011;51229;51.980;6.722;2022-12-08T11:17:34;7.82;;;3.53;;
64795;SDS011;51229;51.980;6.722;2022-12-08T11:20:18;6.38;;;3.60;;
64795;SDS011;51229;51.980;6.722;2022-12-08T11:25:23;7.53;;;3.35;;
64795;SDS011;51229;51.980;6.722;2022-12-08T11:27:51;5.63;;;2.92;;
64795;SDS011;51229;51.980;6.722;2022-12-08T11:30:24;6.05;;;3.10;;
64795;SDS011;51229;51.980;6.722;2022-12-08T11:35:31;6.13;;;3.25;;
64795;SDS011;51229;51.980;6.722;2022-12-08T11:38:11;5.18;;;2.85;;
64795;SDS011;51229;51.980;6.722;2022-12-08T11:40:39;5.85;;;3.50;;
64795;SDS011;51229;51.980;6.722;2022-12-08T11:45:55;6.72;;;3.75;;
64795;SDS011;51229;51.980;6.722;2022-12-08T11:48:39;7.50;;;3.90;;
64795;SDS011;51229;51.980;6.722;2022-12-08T11:51:14;6.97;;;3.88;;
64795;SDS011;51229;51.980;6.722;2022-12-08T11:56:20;6.60;;;3.97;;
64795;SDS011;51229;51.980;6.722;2022-12-08T11:59:01;8.18;;;4.15;;
64795;SDS011;51229;51.980;6.722;2022-12-08T12:01:34;6.68;;;3.80;;
64795;SDS011;51229;51.980;6.722;2022-12-08T12:06:52;8.88;;;4.30;;
64795;SDS011;51229;51.980;6.722;2022-12-08T12:15:01;9.48;;;4.78;;
64795;SDS011;51229;51.980;6.722;2022-12-08T12:17:48;7.63;;;3.90;;
64795;SDS011;51229;51.980;6.722;2022-12-08T12:20:24;8.02;;;3.88;;
64795;SDS011;51229;51.980;6.722;2022-12-08T12:22:55;8.70;;;4.82;;
64795;SDS011;51229;51.980;6.722;2022-12-08T12:25:30;6.68;;;3.40;;
64795;SDS011;51229;51.980;6.722;2022-12-08T12:27:59;8.10;;;4.03;;
64795;SDS011;51229;51.980;6.722;2022-12-08T12:30:32;7.00;;;4.10;;
64795;SDS011;51229;51.980;6.722;2022-12-08T12:33:20;8.15;;;4.40;;
64795;SDS011;51229;51.980;6.722;2022-12-08T12:35:47;5.80;;;3.35;;
64795;SDS011;51229;51.980;6.722;2022-12-08T12:41:46;7.55;;;4.13;;
64795;SDS011;51229;51.980;6.722;2022-12-08T12:52:48;7.45;;;3.70;;
64795;SDS011;51229;51.980;6.722;2022-12-08T12:57:24;5.95;;;3.50;;
64795;SDS011;51229;51.980;6.722;2022-12-08T13:05:07;4.85;;;2.60;;
64795;SDS011;51229;51.980;6.722;2022-12-08T13:10:32;5.20;;;2.78;;
64795;SDS011;51229;51.980;6.722;2022-12-08T13:18:28;4.90;;;2.70;;
64795;SDS011;51229;51.980;6.722;2022-12-08T13:21:04;4.35;;;2.58;;
64795;SDS011;51229;51.980;6.722;2022-12-08T13:26:22;4.80;;;2.47;;
64795;SDS011;51229;51.980;6.722;2022-12-08T13:31:35;4.95;;;3.10;;
64795;SDS011;51229;51.980;6.722;2022-12-08T13:34:05;6.70;;;3.50;;
64795;SDS011;51229;51.980;6.722;2022-12-08T13:36:37;5.40;;;3.10;;
64795;SDS011;51229;51.980;6.722;2022-12-08T13:45:00;5.68;;;2.97;;
64795;SDS011;51229;51.980;6.722;2022-12-08T13:52:47;5.80;;;3.20;;
64795;SDS011;51229;51.980;6.722;2022-12-08T13:55:33;5.53;;;3.50;;
64795;SDS011;51229;51.980;6.722;2022-12-08T13:58:27;6.30;;;3.60;;
64795;SDS011;51229;51.980;6.722;2022-12-08T14:00:57;6.45;;;3.80;;
64795;SDS011;51229;51.980;6.722;2022-12-08T14:03:29;5.45;;;3.00;;
64795;SDS011;51229;51.980;6.722;2022-12-08T14:05:55;7.05;;;3.58;;
64795;SDS011;51229;51.980;6.722;2022-12-08T14:08:31;7.65;;;4.03;;
64795;SDS011;51229;51.980;6.722;2022-12-08T14:11:01;6.05;;;3.65;;
64795;SDS011;51229;51.980;6.722;2022-12-08T14:13:29;5.38;;;3.47;;
64795;SDS011;51229;51.980;6.722;2022-12-08T14:15:55;6.20;;;3.63;;
64795;SDS011;51229;51.980;6.722;2022-12-08T14:18:23;7.25;;;4.15;;
64795;SDS011;51229;51.980;6.722;2022-12-08T14:21:00;6.80;;;3.80;;
64795;SDS011;51229;51.980;6.722;2022-12-08T14:23:29;7.30;;;3.92;;
64795;SDS011;51229;51.980;6.722;2022-12-08T14:25:58;6.68;;;4.03;;
64795;SDS011;51229;51.980;6.722;2022-12-08T14:28:23;6.35;;;3.83;;
64795;SDS011;51229;51.980;6.722;2022-12-08T14:30:49;6.18;;;3.90;;
64795;SDS011;51229;51.980;6.722;2022-12-08T14:33:15;6.03;;;3.65;;
64795;SDS011;51229;51.980;6.722;2022-12-08T14:35:41;7.55;;;4.20;;
64795;SDS011;51229;51.980;6.722;2022-12-08T14:38:14;6.88;;;3.53;;
64795;SDS011;51229;51.980;6.722;2022-12-08T14:40:43;8.88;;;4.47;;
64795;SDS011;51229;51.980;6.722;2022-12-08T14:43:23;7.90;;;4.43;;
64795;SDS011;51229;51.980;6.722;2022-12-08T14:45:51;7.55;;;4.63;;
64795;SDS011;51229;51.980;6.722;2022-12-08T14:53:29;7.07;;;4.32;;
64795;SDS011;51229;51.980;6.722;2022-12-08T14:56:46;7.32;;;4.65;;
64795;SDS011;51229;51.980;6.722;2022-12-08T14:59:05;7.97;;;4.95;;
64795;SDS011;51229;51.980;6.722;2022-12-08T15:01:45;8.57;;;5.95;;
64795;SDS011;51229;51.980;6.722;2022-12-08T15:12:01;10.82;;;7.45;;
64795;SDS011;51229;51.980;6.722;2022-12-08T15:14:37;10.60;;;6.30;;
64795;SDS011;51229;51.980;6.722;2022-12-08T15:19:58;11.23;;;5.97;;
64795;SDS011;51229;51.980;6.722;2022-12-08T15:22:24;9.70;;;6.32;;
64795;SDS011;51229;51.980;6.722;2022-12-08T15:24:51;9.43;;;6.40;;
64795;SDS011;51229;51.980;6.722;2022-12-08T15:27:18;9.10;;;6.97;;
64795;SDS011;51229;51.980;6.722;2022-12-08T15:29:46;12.48;;;7.30;;
64795;SDS011;51229;51.980;6.722;2022-12-08T15:32:12;10.00;;;6.95;;
64795;SDS011;51229;51.980;6.722;2022-12-08T15:34:42;11.20;;;6.63;;
64795;SDS011;51229;51.980;6.722;2022-12-08T15:37:12;10.75;;;6.30;;
64795;SDS011;51229;51.980;6.722;2022-12-08T15:39:46;11.38;;;6.30;;
64795;SDS011;51229;51.980;6.722;2022-12-08T15:42:12;10.52;;;6.20;;
64795;SDS011;51229;51.980;6.722;2022-12-08T15:44:38;12.45;;;6.75;;
64795;SDS011;51229;51.980;6.722;2022-12-08T15:47:04;14.23;;;7.20;;
64795;SDS011;51229;51.980;6.722;2022-12-08T15:49:35;14.30;;;7.82;;
64795;SDS011;51229;51.980;6.722;2022-12-08T15:52:01;15.10;;;7.95;;
64795;SDS011;51229;51.980;6.722;2022-12-08T15:54:26;13.52;;;7.05;;
64795;SDS011;51229;51.980;6.722;2022-12-08T15:56:53;17.20;;;8.75;;
64795;SDS011;51229;51.980;6.722;2022-12-08T15:59:21;17.08;;;7.75;;
64795;SDS011;51229;51.980;6.722;2022-12-08T16:01:49;13.40;;;7.18;;
64795;SDS011;51229;51.980;6.722;2022-12-08T16:04:16;15.55;;;7.18;;
64795;SDS011;51229;51.980;6.722;2022-12-08T16:06:45;10.30;;;6.05;;
64795;SDS011;51229;51.980;6.722;2022-12-08T16:09:35;9.77;;;6.37;;
64795;SDS011;51229;51.980;6.722;2022-12-08T16:12:04;11.13;;;6.60;;
64795;SDS011;51229;51.980;6.722;2022-12-08T16:14:49;12.10;;;7.32;;
64795;SDS011;51229;51.980;6.722;2022-12-08T16:17:15;14.77;;;8.10;;
64795;SDS011;51229;51.980;6.722;2022-12-08T16:19:42;10.90;;;7.00;;
64795;SDS011;51229;51.980;6.722;2022-12-08T16:22:14;13.57;;;7.47;;
64795;SDS011;51229;51.980;6.722;2022-12-08T16:24:44;15.30;;;7.78;;
64795;SDS011;51229;51.980;6.722;2022-12-08T16:27:22;11.68;;;6.80;;
64795;SDS011;51229;51.980;6.722;2022-12-08T16:29:51;11.60;;;7.28;;
64795;SDS011;51229;51.980;6.722;2022-12-08T16:32:17;14.32;;;8.25;;
64795;SDS011;51229;51.980;6.722;2022-12-08T16:34:43;14.13;;;9.27;;
64795;SDS011;51229;51.980;6.722;2022-12-08T16:37:15;14.30;;;8.98;;
64795;SDS011;51229;51.980;6.722;2022-12-08T16:39:42;14.95;;;8.80;;
64795;SDS011;51229;51.980;6.722;2022-12-08T16:42:11;16.10;;;9.35;;
64795;SDS011;51229;51.980;6.722;2022-12-08T16:44:56;14.50;;;8.93;;
64795;SDS011;51229;51.980;6.722;2022-12-08T16:47:22;15.70;;;8.82;;
64795;SDS011;51229;51.980;6.722;2022-12-08T16:49:48;14.82;;;8.88;;
64795;SDS011;51229;51.980;6.722;2022-12-08T16:52:13;12.95;;;8.25;;
64795;SDS011;51229;51.980;6.722;2022-12-08T16:54:40;16.25;;;9.20;;
64795;SDS011;51229;51.980;6.722;2022-12-08T16:57:06;15.38;;;9.27;;
64795;SDS011;51229;51.980;6.722;2022-12-08T16:59:32;17.35;;;10.50;;
64795;SDS011;51229;51.980;6.722;2022-12-08T17:01:57;14.98;;;9.80;;
64795;SDS011;51229;51.980;6.722;2022-12-08T17:04:23;16.58;;;9.88;;
64795;SDS011;51229;51.980;6.722;2022-12-08T17:06:49;19.35;;;10.48;;